US Aviators Van Nuys Flight School Los Angeles Pilot school at Van Nuys Simulator Flight Training Profesional Pilot Instruction Learn to Fly

U.S. Aviators

Learn to fly here! (818) 779-2105

Weather at Van Nuys Airport

Observed:Fri May 6, 06:51 PDT
Age:61 min ago
Wind:Calm
Visibility:10 miles
Clouds:Overcast
Temperature:57°F (14°C)
Dewpoint:48°F (9°C)
Humidity:72%
Barometer:1011 hPa (29.85 in Hg)

METAR

KVNY 061351Z 00000KT 10SM OVC049 14/09 A2985 RMK AO2 SLP105 T01390094